createdAt,value
2023-03-22T00:00:01.870Z,41.60
2023-03-22T00:02:33.342Z,42.85
2023-03-22T00:05:00.541Z,43.78
2023-03-22T00:07:28.160Z,43.53
2023-03-22T00:09:55.507Z,43.70
2023-03-22T00:12:22.430Z,40.97
2023-03-22T00:14:49.679Z,42.33
2023-03-22T00:17:16.774Z,40.50
2023-03-22T00:19:45.242Z,39.90
2023-03-22T00:22:14.878Z,40.75
2023-03-22T00:24:41.910Z,40.25
2023-03-22T00:27:08.924Z,38.08
2023-03-22T00:29:36.049Z,37.90
2023-03-22T00:32:04.434Z,37.67
2023-03-22T00:34:32.910Z,40.38
2023-03-22T00:37:00.327Z,38.75
2023-03-22T00:39:27.393Z,38.70
2023-03-22T00:41:54.394Z,38.70
2023-03-22T00:44:21.498Z,38.13
2023-03-22T00:46:48.464Z,37.15
2023-03-22T00:49:15.530Z,37.75
2023-03-22T00:51:42.592Z,37.30
2023-03-22T00:54:09.726Z,37.85
2023-03-22T00:56:37.779Z,37.00
2023-03-22T00:59:13.969Z,37.60
2023-03-22T01:01:43.111Z,37.78
2023-03-22T01:04:15.469Z,38.70
2023-03-22T01:06:42.418Z,38.42
2023-03-22T01:09:15.003Z,39.15
2023-03-22T01:11:44.141Z,37.22
2023-03-22T01:14:14.121Z,40.17
2023-03-22T01:16:41.305Z,36.97
2023-03-22T01:19:08.963Z,40.80
2023-03-22T01:21:35.996Z,37.63
2023-03-22T01:24:03.454Z,39.33
2023-03-22T01:26:30.695Z,37.47
2023-03-22T01:28:57.842Z,37.65
2023-03-22T01:31:25.025Z,36.55
2023-03-22T01:33:52.168Z,36.58
2023-03-22T01:36:21.217Z,38.92
2023-03-22T01:38:48.273Z,35.83
2023-03-22T01:41:17.121Z,36.42
2023-03-22T01:43:44.815Z,36.67
2023-03-22T01:46:12.413Z,36.22
2023-03-22T01:48:46.120Z,36.42
2023-03-22T01:51:18.700Z,34.83
2023-03-22T01:54:32.078Z,36.47
2023-03-22T01:57:03.774Z,35.22
2023-03-22T01:59:40.207Z,36.15
2023-03-22T02:02:19.387Z,37.45
2023-03-22T02:04:58.272Z,35.40
2023-03-22T02:07:28.764Z,36.10
2023-03-22T02:09:57.015Z,35.17
2023-03-22T02:12:40.901Z,35.83
2023-03-22T02:15:32.669Z,36.55
2023-03-22T02:18:39.163Z,34.63
2023-03-22T02:21:44.993Z,36.88
2023-03-22T02:24:30.475Z,36.58
2023-03-22T02:27:26.648Z,36.33
2023-03-22T02:30:28.447Z,37.60
2023-03-22T02:33:17.574Z,38.42
2023-03-22T02:36:11.366Z,37.35
2023-03-22T02:39:05.707Z,37.42
2023-03-22T02:42:00.437Z,39.17
2023-03-22T02:45:04.125Z,36.47
2023-03-22T02:47:55.331Z,36.92
2023-03-22T02:50:29.872Z,38.03
2023-03-22T02:53:29.054Z,38.90
2023-03-22T02:56:09.848Z,39.03
2023-03-22T02:58:50.527Z,40.55
2023-03-22T03:01:27.456Z,40.33
2023-03-22T03:03:59.406Z,39.78
2023-03-22T03:06:32.504Z,39.05
2023-03-22T03:09:02.803Z,40.60
2023-03-22T03:13:59.685Z,40.65
2023-03-22T03:16:31.072Z,40.00
2023-03-22T03:19:11.745Z,40.08
2023-03-22T03:21:45.554Z,39.78
2023-03-22T03:24:23.403Z,40.40
2023-03-22T03:27:13.532Z,40.60
2023-03-22T03:29:50.848Z,42.00
2023-03-22T03:32:25.783Z,42.53
2023-03-22T03:35:07.830Z,42.42
2023-03-22T03:37:39.925Z,42.97
2023-03-22T03:40:13.015Z,44.35
2023-03-22T03:42:46.739Z,42.97
2023-03-22T03:45:15.558Z,45.40
2023-03-22T03:47:44.844Z,45.20
2023-03-22T03:50:15.948Z,44.33
2023-03-22T03:52:43.399Z,46.47
2023-03-22T03:55:10.937Z,43.00
2023-03-22T03:57:37.947Z,43.22
2023-03-22T04:00:06.009Z,45.80
2023-03-22T04:03:02.649Z,43.22
2023-03-22T04:05:50.700Z,41.72
2023-03-22T04:08:17.842Z,45.88
2023-03-22T04:10:50.873Z,46.40
2023-03-22T04:13:21.762Z,44.00
2023-03-22T04:15:53.758Z,42.67
2023-03-22T04:18:21.432Z,45.08
2023-03-22T04:20:49.615Z,43.50
2023-03-22T04:23:17.270Z,42.80
2023-03-22T04:25:50.368Z,40.15
2023-03-22T04:28:24.182Z,41.72
2023-03-22T04:30:52.556Z,43.13
2023-03-22T04:33:39.596Z,42.17
2023-03-22T04:36:36.625Z,40.17
2023-03-22T04:39:19.300Z,42.15
2023-03-22T04:41:55.332Z,45.00
2023-03-22T04:44:22.915Z,42.75
2023-03-22T04:46:51.110Z,43.83
2023-03-22T04:49:18.334Z,44.78
2023-03-22T04:51:45.699Z,44.53
2023-03-22T04:56:53.087Z,40.70
2023-03-22T04:59:22.632Z,45.50
2023-03-22T05:01:51.763Z,44.97
2023-03-22T05:04:22.689Z,46.88
2023-03-22T05:06:55.462Z,45.90
2023-03-22T05:09:28.350Z,46.35
2023-03-22T05:11:56.004Z,44.85
2023-03-22T05:14:37.636Z,42.70
2023-03-22T05:17:06.062Z,44.95
2023-03-22T05:19:36.636Z,46.40
2023-03-22T05:22:03.745Z,42.40
2023-03-22T05:24:46.407Z,41.28
2023-03-22T05:27:31.826Z,45.75
2023-03-22T05:30:17.797Z,41.95
2023-03-22T05:32:59.928Z,44.30
2023-03-22T05:35:27.721Z,45.25
2023-03-22T05:37:57.252Z,42.30
2023-03-22T05:40:27.645Z,46.95
2023-03-22T05:42:55.376Z,46.15
2023-03-22T05:45:26.282Z,43.17
2023-03-22T05:48:16.384Z,47.85
2023-03-22T05:50:43.617Z,45.72
2023-03-22T05:53:11.798Z,46.40
2023-03-22T05:56:05.470Z,44.92
2023-03-22T05:58:34.079Z,43.53
2023-03-22T06:01:08.560Z,41.00
2023-03-22T06:03:48.655Z,43.17
2023-03-22T06:06:28.264Z,45.95
2023-03-22T06:09:16.459Z,46.75
2023-03-22T06:11:45.768Z,45.50
2023-03-22T06:14:14.903Z,49.57
2023-03-22T06:17:05.313Z,46.72
2023-03-22T06:19:32.537Z,45.08
2023-03-22T06:22:02.610Z,48.45
2023-03-22T06:24:31.405Z,47.53
2023-03-22T06:26:58.498Z,44.75
2023-03-22T06:29:25.690Z,46.90
2023-03-22T06:31:54.873Z,44.63
2023-03-22T06:34:21.871Z,45.33
2023-03-22T06:36:49.049Z,53.90
2023-03-22T06:39:23.937Z,46.53
2023-03-22T06:41:51.388Z,49.75
2023-03-22T06:44:18.777Z,51.72
2023-03-22T06:46:52.199Z,41.95
2023-03-22T06:49:37.214Z,45.05
2023-03-22T06:52:04.530Z,44.33
2023-03-22T06:54:32.465Z,41.63
2023-03-22T06:56:59.539Z,46.17
2023-03-22T06:59:26.858Z,42.42
2023-03-22T07:01:53.898Z,42.72
2023-03-22T07:04:21.346Z,44.80
2023-03-22T07:06:50.105Z,40.60
2023-03-22T07:09:17.866Z,40.70
2023-03-22T07:11:47.249Z,43.03
2023-03-22T07:14:18.187Z,44.97
2023-03-22T07:17:08.516Z,41.47
2023-03-22T07:19:35.766Z,39.55
2023-03-22T07:22:07.136Z,40.75
2023-03-22T07:24:38.655Z,42.78
2023-03-22T07:27:09.439Z,41.72
2023-03-22T07:29:36.598Z,38.88
2023-03-22T07:32:03.696Z,40.88
2023-03-22T07:34:44.167Z,40.90
2023-03-22T07:37:16.532Z,40.53
2023-03-22T07:39:43.827Z,40.38
2023-03-22T07:42:10.903Z,38.58
2023-03-22T07:45:07.513Z,38.50
2023-03-22T07:47:43.371Z,41.42
2023-03-22T07:50:33.419Z,38.05
2023-03-22T07:53:04.482Z,39.72
2023-03-22T07:55:31.875Z,38.28
2023-03-22T07:57:59.080Z,39.90
2023-03-22T08:00:26.360Z,38.65
2023-03-22T08:03:16.232Z,35.45
2023-03-22T08:06:04.481Z,32.88
2023-03-22T08:08:31.552Z,34.22
2023-03-22T08:10:59.152Z,33.20
2023-03-22T08:13:26.982Z,31.10
2023-03-22T08:15:54.385Z,30.73
2023-03-22T08:18:21.879Z,31.42
2023-03-22T08:20:56.906Z,29.88
2023-03-22T08:23:40.384Z,28.20
2023-03-22T08:26:27.521Z,29.83
2023-03-22T08:28:57.414Z,28.58
2023-03-22T08:31:24.496Z,28.60
2023-03-22T08:33:51.626Z,29.77
2023-03-22T08:36:21.793Z,31.40
2023-03-22T08:38:58.845Z,31.15
2023-03-22T08:41:38.793Z,31.90
2023-03-22T08:44:06.624Z,32.15
2023-03-22T08:46:35.416Z,31.85
2023-03-22T08:49:03.544Z,33.25
2023-03-22T08:51:41.688Z,34.40
2023-03-22T08:54:36.680Z,34.65
2023-03-22T08:57:04.388Z,33.58
2023-03-22T08:59:52.576Z,32.95
2023-03-22T09:02:36.410Z,32.70
2023-03-22T09:05:04.090Z,33.45
2023-03-22T09:07:31.913Z,34.38
2023-03-22T09:10:06.581Z,33.00
2023-03-22T09:12:37.350Z,30.85
2023-03-22T09:15:06.392Z,32.00
2023-03-22T09:17:34.719Z,29.17
2023-03-22T09:20:12.549Z,27.92
2023-03-22T09:22:42.755Z,29.55
2023-03-22T09:25:12.988Z,29.67
2023-03-22T09:27:43.040Z,30.33
2023-03-22T09:30:11.377Z,26.42
2023-03-22T09:32:40.876Z,23.80
2023-03-22T09:35:10.162Z,20.98
2023-03-22T09:37:49.622Z,21.05
2023-03-22T09:40:17.839Z,20.25
2023-03-22T09:42:55.293Z,19.10
2023-03-22T09:45:32.366Z,20.90
2023-03-22T09:48:00.292Z,19.65
2023-03-22T09:50:31.372Z,20.35
2023-03-22T09:52:59.489Z,20.88
2023-03-22T09:55:37.784Z,20.75
2023-03-22T09:58:13.703Z,20.60
2023-03-22T10:00:46.160Z,21.80
2023-03-22T10:03:34.710Z,21.58
2023-03-22T10:06:18.492Z,19.77
2023-03-22T10:08:54.500Z,20.10
2023-03-22T10:11:26.216Z,21.65
2023-03-22T10:13:57.777Z,22.52
2023-03-22T10:16:29.780Z,22.35
2023-03-22T10:19:21.736Z,23.10
2023-03-22T10:21:52.129Z,21.48
2023-03-22T10:26:51.509Z,21.08
2023-03-22T10:29:27.568Z,22.25
2023-03-22T10:31:55.158Z,23.00
2023-03-22T10:34:28.193Z,22.25
2023-03-22T10:36:55.977Z,22.48
2023-03-22T10:39:38.562Z,22.73
2023-03-22T10:42:16.157Z,20.52
2023-03-22T10:44:58.074Z,20.75
2023-03-22T10:47:35.634Z,22.17
2023-03-22T10:50:07.441Z,20.42
2023-03-22T10:52:51.601Z,20.58
2023-03-22T10:55:18.847Z,19.55
2023-03-22T10:57:57.010Z,20.25
2023-03-22T11:00:25.667Z,20.77
2023-03-22T11:02:58.734Z,20.33
2023-03-22T11:05:30.297Z,20.65
2023-03-22T11:07:59.041Z,19.67
2023-03-22T11:10:34.848Z,19.75
2023-03-22T11:13:08.002Z,20.15
2023-03-22T11:15:54.717Z,20.08
2023-03-22T11:18:22.399Z,20.02
2023-03-22T11:20:57.335Z,19.55
2023-03-22T11:23:25.630Z,18.23
2023-03-22T11:25:56.689Z,17.85
2023-03-22T11:28:34.376Z,17.65
2023-03-22T11:31:08.666Z,15.93
2023-03-22T11:33:37.069Z,16.42
2023-03-22T11:36:16.408Z,15.40
2023-03-22T11:38:45.578Z,16.35
2023-03-22T11:41:22.972Z,16.17
2023-03-22T11:44:01.957Z,16.02
2023-03-22T11:46:30.556Z,15.52
2023-03-22T11:49:02.053Z,16.83
2023-03-22T11:51:33.679Z,16.85
2023-03-22T11:54:03.774Z,17.23
2023-03-22T11:56:31.273Z,16.60
2023-03-22T11:59:00.269Z,17.17
2023-03-22T12:01:43.500Z,16.00
2023-03-22T12:04:17.812Z,15.40
2023-03-22T12:06:45.203Z,14.70
2023-03-22T12:09:30.534Z,15.20
2023-03-22T12:12:01.128Z,15.13
2023-03-22T12:14:39.698Z,14.73
2023-03-22T12:17:14.658Z,14.40
2023-03-22T12:20:09.316Z,14.70
2023-03-22T12:22:41.996Z,15.00
2023-03-22T12:25:17.888Z,15.40
2023-03-22T12:27:48.691Z,14.73
2023-03-22T12:30:21.221Z,15.27
2023-03-22T12:32:59.690Z,15.52
2023-03-22T12:35:31.672Z,13.65
2023-03-22T12:38:01.862Z,14.00
2023-03-22T12:40:34.881Z,13.80
2023-03-22T12:43:01.883Z,14.18
2023-03-22T12:45:32.020Z,13.70
2023-03-22T12:48:07.246Z,12.82
2023-03-22T12:50:46.167Z,13.15
2023-03-22T12:53:19.274Z,12.70
2023-03-22T12:55:48.460Z,13.13
2023-03-22T12:58:23.988Z,12.43
2023-03-22T13:00:58.959Z,12.20
2023-03-22T13:03:29.072Z,11.02
2023-03-22T13:06:03.733Z,13.32
2023-03-22T13:09:09.339Z,12.65
2023-03-22T13:11:36.731Z,12.23
2023-03-22T13:14:03.892Z,12.55
2023-03-22T13:17:07.003Z,12.63
2023-03-22T13:19:37.714Z,12.40
2023-03-22T13:22:28.556Z,12.50
2023-03-22T13:25:29.306Z,12.27
2023-03-22T13:28:03.661Z,12.88
2023-03-22T13:30:35.647Z,12.60
2023-03-22T13:33:08.810Z,12.38
2023-03-22T13:35:57.998Z,13.40
2023-03-22T13:38:38.763Z,13.80
2023-03-22T13:41:20.839Z,14.15
2023-03-22T13:44:26.517Z,12.98
2023-03-22T13:46:58.406Z,13.25
2023-03-22T13:49:31.434Z,13.18
2023-03-22T13:52:02.262Z,13.10
2023-03-22T13:54:43.207Z,12.80
2023-03-22T13:57:37.900Z,12.88
2023-03-22T14:00:32.867Z,11.88
2023-03-22T14:03:18.350Z,12.43
2023-03-22T14:05:47.507Z,12.45
2023-03-22T14:08:28.617Z,11.18
2023-03-22T14:11:02.288Z,11.15
2023-03-22T14:13:35.195Z,11.00
2023-03-22T14:16:15.770Z,10.65
2023-03-22T14:21:19.185Z,11.00
